sensor_id;sensor_type;location;lat;lon;timestamp;P1;durP1;ratioP1;P2;durP2;ratioP2
66380;SDS011;53177;52.648;1.214;2022-12-19T00:00:44;35.25;;;14.18;;
66380;SDS011;53177;52.648;1.214;2022-12-19T00:03:14;34.00;;;14.10;;
66380;SDS011;53177;52.648;1.214;2022-12-19T00:05:40;35.93;;;14.13;;
66380;SDS011;53177;52.648;1.214;2022-12-19T00:08:06;40.38;;;14.00;;
66380;SDS011;53177;52.648;1.214;2022-12-19T00:10:37;36.50;;;12.70;;
66380;SDS011;53177;52.648;1.214;2022-12-19T00:13:03;33.20;;;12.82;;
66380;SDS011;53177;52.648;1.214;2022-12-19T00:15:28;35.00;;;12.87;;
66380;SDS011;53177;52.648;1.214;2022-12-19T00:17:54;37.10;;;12.87;;
66380;SDS011;53177;52.648;1.214;2022-12-19T00:20:20;32.20;;;12.60;;
66380;SDS011;53177;52.648;1.214;2022-12-19T00:22:46;29.50;;;11.82;;
66380;SDS011;53177;52.648;1.214;2022-12-19T00:25:12;34.23;;;12.10;;
66380;SDS011;53177;52.648;1.214;2022-12-19T00:27:37;28.13;;;11.40;;
66380;SDS011;53177;52.648;1.214;2022-12-19T00:30:03;31.02;;;11.82;;
66380;SDS011;53177;52.648;1.214;2022-12-19T00:32:28;28.07;;;11.97;;
66380;SDS011;53177;52.648;1.214;2022-12-19T00:34:54;29.20;;;11.75;;
66380;SDS011;53177;52.648;1.214;2022-12-19T00:37:19;25.63;;;10.25;;
66380;SDS011;53177;52.648;1.214;2022-12-19T00:39:44;23.07;;;9.63;;
66380;SDS011;53177;52.648;1.214;2022-12-19T00:42:10;24.27;;;9.80;;
66380;SDS011;53177;52.648;1.214;2022-12-19T00:44:35;21.97;;;9.57;;
66380;SDS011;53177;52.648;1.214;2022-12-19T00:47:01;20.93;;;8.73;;
66380;SDS011;53177;52.648;1.214;2022-12-19T00:49:26;21.17;;;8.48;;
66380;SDS011;53177;52.648;1.214;2022-12-19T00:51:51;21.57;;;8.87;;
66380;SDS011;53177;52.648;1.214;2022-12-19T00:54:17;19.13;;;8.10;;
66380;SDS011;53177;52.648;1.214;2022-12-19T00:56:42;18.23;;;8.90;;
66380;SDS011;53177;52.648;1.214;2022-12-19T00:59:08;17.15;;;7.72;;
66380;SDS011;53177;52.648;1.214;2022-12-19T01:01:35;18.87;;;8.50;;
66380;SDS011;53177;52.648;1.214;2022-12-19T01:04:03;15.65;;;7.50;;
66380;SDS011;53177;52.648;1.214;2022-12-19T01:06:30;16.70;;;7.15;;
66380;SDS011;53177;52.648;1.214;2022-12-19T01:08:55;19.07;;;8.13;;
66380;SDS011;53177;52.648;1.214;2022-12-19T01:11:21;18.98;;;7.55;;
66380;SDS011;53177;52.648;1.214;2022-12-19T01:14:07;19.27;;;7.63;;
66380;SDS011;53177;52.648;1.214;2022-12-19T01:16:33;21.52;;;10.10;;
66380;SDS011;53177;52.648;1.214;2022-12-19T01:18:59;20.08;;;7.80;;
66380;SDS011;53177;52.648;1.214;2022-12-19T01:21:24;15.60;;;8.27;;
66380;SDS011;53177;52.648;1.214;2022-12-19T01:23:50;17.87;;;7.63;;
66380;SDS011;53177;52.648;1.214;2022-12-19T01:26:15;16.07;;;7.57;;
66380;SDS011;53177;52.648;1.214;2022-12-19T01:28:40;17.97;;;7.97;;
66380;SDS011;53177;52.648;1.214;2022-12-19T01:31:06;17.55;;;7.75;;
66380;SDS011;53177;52.648;1.214;2022-12-19T01:33:31;18.17;;;7.43;;
66380;SDS011;53177;52.648;1.214;2022-12-19T01:35:57;17.10;;;7.60;;
66380;SDS011;53177;52.648;1.214;2022-12-19T01:38:25;16.67;;;7.25;;
66380;SDS011;53177;52.648;1.214;2022-12-19T01:40:51;18.60;;;7.23;;
66380;SDS011;53177;52.648;1.214;2022-12-19T01:43:18;18.30;;;8.93;;
66380;SDS011;53177;52.648;1.214;2022-12-19T01:45:45;17.23;;;7.30;;
66380;SDS011;53177;52.648;1.214;2022-12-19T01:48:21;15.25;;;7.35;;
66380;SDS011;53177;52.648;1.214;2022-12-19T01:50:59;17.23;;;8.03;;
66380;SDS011;53177;52.648;1.214;2022-12-19T01:53:28;15.80;;;7.07;;
66380;SDS011;53177;52.648;1.214;2022-12-19T01:55:57;18.27;;;7.45;;
66380;SDS011;53177;52.648;1.214;2022-12-19T01:58:23;16.20;;;7.35;;
66380;SDS011;53177;52.648;1.214;2022-12-19T02:00:49;15.50;;;7.63;;
66380;SDS011;53177;52.648;1.214;2022-12-19T02:03:19;15.43;;;6.55;;
66380;SDS011;53177;52.648;1.214;2022-12-19T02:05:50;18.60;;;7.47;;
66380;SDS011;53177;52.648;1.214;2022-12-19T02:08:17;16.33;;;7.00;;
66380;SDS011;53177;52.648;1.214;2022-12-19T02:10:42;18.70;;;8.18;;
66380;SDS011;53177;52.648;1.214;2022-12-19T02:13:08;17.10;;;6.93;;
66380;SDS011;53177;52.648;1.214;2022-12-19T02:15:41;15.00;;;6.70;;
66380;SDS011;53177;52.648;1.214;2022-12-19T02:32:18;14.75;;;6.40;;
66380;SDS011;53177;52.648;1.214;2022-12-19T02:34:55;19.77;;;8.20;;
66380;SDS011;53177;52.648;1.214;2022-12-19T02:37:31;19.20;;;7.60;;
66380;SDS011;53177;52.648;1.214;2022-12-19T02:43:09;17.50;;;8.45;;
66380;SDS011;53177;52.648;1.214;2022-12-19T02:45:37;17.58;;;7.05;;
66380;SDS011;53177;52.648;1.214;2022-12-19T02:48:04;15.70;;;6.63;;
66380;SDS011;53177;52.648;1.214;2022-12-19T02:50:49;13.93;;;6.45;;
66380;SDS011;53177;52.648;1.214;2022-12-19T02:53:15;20.40;;;7.10;;
66380;SDS011;53177;52.648;1.214;2022-12-19T02:56:04;16.02;;;6.03;;
66380;SDS011;53177;52.648;1.214;2022-12-19T02:59:05;15.38;;;6.32;;
66380;SDS011;53177;52.648;1.214;2022-12-19T03:04:54;14.05;;;5.57;;
66380;SDS011;53177;52.648;1.214;2022-12-19T03:07:41;12.63;;;5.30;;
66380;SDS011;53177;52.648;1.214;2022-12-19T03:10:21;11.25;;;5.00;;
66380;SDS011;53177;52.648;1.214;2022-12-19T03:13:14;13.88;;;5.70;;
66380;SDS011;53177;52.648;1.214;2022-12-19T03:15:56;14.33;;;5.90;;
66380;SDS011;53177;52.648;1.214;2022-12-19T03:18:22;13.70;;;5.78;;
66380;SDS011;53177;52.648;1.214;2022-12-19T03:20:50;13.65;;;6.28;;
66380;SDS011;53177;52.648;1.214;2022-12-19T03:23:16;14.45;;;5.97;;
66380;SDS011;53177;52.648;1.214;2022-12-19T03:25:44;12.95;;;5.50;;
66380;SDS011;53177;52.648;1.214;2022-12-19T03:28:15;15.53;;;6.20;;
66380;SDS011;53177;52.648;1.214;2022-12-19T03:30:45;12.30;;;5.03;;
66380;SDS011;53177;52.648;1.214;2022-12-19T03:33:12;15.15;;;6.40;;
66380;SDS011;53177;52.648;1.214;2022-12-19T03:35:40;14.70;;;5.60;;
66380;SDS011;53177;52.648;1.214;2022-12-19T03:38:07;12.17;;;5.37;;
66380;SDS011;53177;52.648;1.214;2022-12-19T03:40:34;13.93;;;6.88;;
66380;SDS011;53177;52.648;1.214;2022-12-19T03:43:03;15.77;;;7.70;;
66380;SDS011;53177;52.648;1.214;2022-12-19T03:48:45;15.32;;;5.80;;
66380;SDS011;53177;52.648;1.214;2022-12-19T03:56:52;15.65;;;6.40;;
66380;SDS011;53177;52.648;1.214;2022-12-19T03:59:33;17.00;;;8.57;;
66380;SDS011;53177;52.648;1.214;2022-12-19T04:02:03;15.55;;;6.70;;
66380;SDS011;53177;52.648;1.214;2022-12-19T04:04:29;13.67;;;6.10;;
66380;SDS011;53177;52.648;1.214;2022-12-19T04:06:59;16.67;;;6.85;;
66380;SDS011;53177;52.648;1.214;2022-12-19T04:09:26;17.08;;;7.00;;
66380;SDS011;53177;52.648;1.214;2022-12-19T04:11:55;16.70;;;7.47;;
66380;SDS011;53177;52.648;1.214;2022-12-19T04:14:31;14.30;;;6.60;;
66380;SDS011;53177;52.648;1.214;2022-12-19T04:22:47;14.88;;;6.32;;
66380;SDS011;53177;52.648;1.214;2022-12-19T04:25:40;16.38;;;6.30;;
66380;SDS011;53177;52.648;1.214;2022-12-19T04:28:11;15.27;;;6.70;;
66380;SDS011;53177;52.648;1.214;2022-12-19T04:30:41;14.83;;;6.20;;
66380;SDS011;53177;52.648;1.214;2022-12-19T04:33:09;15.68;;;6.10;;
66380;SDS011;53177;52.648;1.214;2022-12-19T04:35:35;17.83;;;6.70;;
66380;SDS011;53177;52.648;1.214;2022-12-19T04:38:01;17.23;;;6.93;;
66380;SDS011;53177;52.648;1.214;2022-12-19T04:40:28;17.15;;;7.07;;
66380;SDS011;53177;52.648;1.214;2022-12-19T04:42:54;17.63;;;5.93;;
66380;SDS011;53177;52.648;1.214;2022-12-19T04:45:19;14.90;;;6.32;;
66380;SDS011;53177;52.648;1.214;2022-12-19T04:47:45;18.33;;;6.43;;
66380;SDS011;53177;52.648;1.214;2022-12-19T04:50:13;17.10;;;7.13;;
66380;SDS011;53177;52.648;1.214;2022-12-19T04:52:39;14.35;;;6.28;;
66380;SDS011;53177;52.648;1.214;2022-12-19T04:55:05;15.50;;;5.53;;
66380;SDS011;53177;52.648;1.214;2022-12-19T04:57:31;14.10;;;5.60;;
66380;SDS011;53177;52.648;1.214;2022-12-19T04:59:56;13.40;;;5.43;;
66380;SDS011;53177;52.648;1.214;2022-12-19T05:02:22;17.95;;;5.80;;
66380;SDS011;53177;52.648;1.214;2022-12-19T05:04:48;15.33;;;6.00;;
66380;SDS011;53177;52.648;1.214;2022-12-19T05:07:14;15.93;;;5.93;;
66380;SDS011;53177;52.648;1.214;2022-12-19T05:09:42;14.60;;;5.47;;
66380;SDS011;53177;52.648;1.214;2022-12-19T05:12:08;18.37;;;5.77;;
66380;SDS011;53177;52.648;1.214;2022-12-19T05:14:36;15.15;;;5.45;;
66380;SDS011;53177;52.648;1.214;2022-12-19T05:17:01;14.63;;;5.30;;
66380;SDS011;53177;52.648;1.214;2022-12-19T05:19:27;16.38;;;6.43;;
66380;SDS011;53177;52.648;1.214;2022-12-19T05:21:53;13.17;;;5.07;;
66380;SDS011;53177;52.648;1.214;2022-12-19T05:24:18;15.50;;;5.72;;
66380;SDS011;53177;52.648;1.214;2022-12-19T05:26:44;12.25;;;5.82;;
66380;SDS011;53177;52.648;1.214;2022-12-19T05:29:09;15.67;;;5.77;;
66380;SDS011;53177;52.648;1.214;2022-12-19T05:31:35;18.77;;;6.22;;
66380;SDS011;53177;52.648;1.214;2022-12-19T05:34:00;16.40;;;5.00;;
66380;SDS011;53177;52.648;1.214;2022-12-19T05:36:26;16.43;;;6.03;;
66380;SDS011;53177;52.648;1.214;2022-12-19T05:38:51;18.60;;;6.63;;
66380;SDS011;53177;52.648;1.214;2022-12-19T05:41:18;15.60;;;6.00;;
66380;SDS011;53177;52.648;1.214;2022-12-19T05:43:45;14.27;;;5.60;;
66380;SDS011;53177;52.648;1.214;2022-12-19T05:46:14;14.77;;;5.15;;
66380;SDS011;53177;52.648;1.214;2022-12-19T05:48:39;16.77;;;5.43;;
66380;SDS011;53177;52.648;1.214;2022-12-19T05:51:05;15.65;;;6.05;;
66380;SDS011;53177;52.648;1.214;2022-12-19T05:53:30;17.77;;;6.30;;
66380;SDS011;53177;52.648;1.214;2022-12-19T05:56:06;19.00;;;5.43;;
66380;SDS011;53177;52.648;1.214;2022-12-19T05:58:32;15.73;;;5.53;;
66380;SDS011;53177;52.648;1.214;2022-12-19T06:01:04;17.10;;;5.90;;
66380;SDS011;53177;52.648;1.214;2022-12-19T06:03:40;16.70;;;5.00;;
66380;SDS011;53177;52.648;1.214;2022-12-19T06:06:06;16.05;;;6.55;;
66380;SDS011;53177;52.648;1.214;2022-12-19T06:08:34;16.45;;;5.22;;
66380;SDS011;53177;52.648;1.214;2022-12-19T06:11:00;20.93;;;6.00;;
66380;SDS011;53177;52.648;1.214;2022-12-19T06:13:27;16.58;;;5.70;;
66380;SDS011;53177;52.648;1.214;2022-12-19T06:15:57;12.77;;;5.70;;
66380;SDS011;53177;52.648;1.214;2022-12-19T06:18:23;14.50;;;5.80;;
66380;SDS011;53177;52.648;1.214;2022-12-19T06:20:59;14.07;;;5.90;;
66380;SDS011;53177;52.648;1.214;2022-12-19T06:23:25;16.30;;;5.53;;
66380;SDS011;53177;52.648;1.214;2022-12-19T06:25:54;16.33;;;5.73;;
66380;SDS011;53177;52.648;1.214;2022-12-19T06:28:21;14.82;;;5.28;;
66380;SDS011;53177;52.648;1.214;2022-12-19T06:30:47;15.45;;;5.68;;
66380;SDS011;53177;52.648;1.214;2022-12-19T06:33:12;15.73;;;6.10;;
66380;SDS011;53177;52.648;1.214;2022-12-19T06:35:37;14.23;;;5.50;;
66380;SDS011;53177;52.648;1.214;2022-12-19T06:38:03;14.40;;;5.77;;
66380;SDS011;53177;52.648;1.214;2022-12-19T06:40:28;19.67;;;5.78;;
66380;SDS011;53177;52.648;1.214;2022-12-19T06:43:12;15.30;;;5.17;;
66380;SDS011;53177;52.648;1.214;2022-12-19T06:45:38;14.93;;;5.10;;
66380;SDS011;53177;52.648;1.214;2022-12-19T06:48:03;13.10;;;5.07;;
66380;SDS011;53177;52.648;1.214;2022-12-19T06:50:29;14.50;;;5.50;;
66380;SDS011;53177;52.648;1.214;2022-12-19T06:52:54;17.50;;;6.20;;
66380;SDS011;53177;52.648;1.214;2022-12-19T06:55:19;14.60;;;4.93;;
66380;SDS011;53177;52.648;1.214;2022-12-19T06:57:45;12.77;;;5.03;;
66380;SDS011;53177;52.648;1.214;2022-12-19T07:00:14;13.17;;;5.23;;
66380;SDS011;53177;52.648;1.214;2022-12-19T07:02:41;14.93;;;4.78;;
66380;SDS011;53177;52.648;1.214;2022-12-19T07:05:10;12.45;;;4.95;;
66380;SDS011;53177;52.648;1.214;2022-12-19T07:07:36;13.90;;;4.90;;
66380;SDS011;53177;52.648;1.214;2022-12-19T07:10:03;12.63;;;4.53;;
66380;SDS011;53177;52.648;1.214;2022-12-19T07:12:29;14.23;;;4.57;;
66380;SDS011;53177;52.648;1.214;2022-12-19T07:14:55;15.73;;;4.57;;
66380;SDS011;53177;52.648;1.214;2022-12-19T07:17:21;11.87;;;4.23;;
66380;SDS011;53177;52.648;1.214;2022-12-19T07:19:48;14.65;;;4.40;;
66380;SDS011;53177;52.648;1.214;2022-12-19T07:22:16;12.45;;;4.93;;
66380;SDS011;53177;52.648;1.214;2022-12-19T07:24:42;11.20;;;4.03;;
66380;SDS011;53177;52.648;1.214;2022-12-19T07:27:07;12.10;;;4.00;;
66380;SDS011;53177;52.648;1.214;2022-12-19T07:29:33;14.50;;;4.65;;
66380;SDS011;53177;52.648;1.214;2022-12-19T07:31:58;12.20;;;4.00;;
66380;SDS011;53177;52.648;1.214;2022-12-19T07:34:24;14.33;;;3.80;;
66380;SDS011;53177;52.648;1.214;2022-12-19T07:36:49;13.43;;;3.63;;
66380;SDS011;53177;52.648;1.214;2022-12-19T07:39:14;14.67;;;3.87;;
66380;SDS011;53177;52.648;1.214;2022-12-19T07:41:41;9.55;;;3.47;;
66380;SDS011;53177;52.648;1.214;2022-12-19T07:44:08;10.07;;;3.55;;
66380;SDS011;53177;52.648;1.214;2022-12-19T07:46:37;12.05;;;3.60;;
66380;SDS011;53177;52.648;1.214;2022-12-19T07:49:02;12.70;;;3.83;;
66380;SDS011;53177;52.648;1.214;2022-12-19T07:51:29;11.80;;;3.40;;
66380;SDS011;53177;52.648;1.214;2022-12-19T07:53:54;13.57;;;4.22;;
66380;SDS011;53177;52.648;1.214;2022-12-19T07:56:20;11.37;;;3.60;;
66380;SDS011;53177;52.648;1.214;2022-12-19T07:58:45;12.80;;;3.53;;
66380;SDS011;53177;52.648;1.214;2022-12-19T08:01:11;8.73;;;3.43;;
66380;SDS011;53177;52.648;1.214;2022-12-19T08:03:36;9.30;;;3.17;;
66380;SDS011;53177;52.648;1.214;2022-12-19T08:06:03;11.80;;;3.90;;
66380;SDS011;53177;52.648;1.214;2022-12-19T08:08:30;11.90;;;3.70;;
66380;SDS011;53177;52.648;1.214;2022-12-19T08:11:08;12.95;;;4.28;;
66380;SDS011;53177;52.648;1.214;2022-12-19T08:13:38;10.07;;;3.17;;
66380;SDS011;53177;52.648;1.214;2022-12-19T08:16:04;11.27;;;3.47;;
66380;SDS011;53177;52.648;1.214;2022-12-19T08:18:30;11.20;;;3.97;;
66380;SDS011;53177;52.648;1.214;2022-12-19T08:20:55;10.32;;;3.22;;
66380;SDS011;53177;52.648;1.214;2022-12-19T08:23:21;8.70;;;2.70;;
66380;SDS011;53177;52.648;1.214;2022-12-19T08:25:47;11.18;;;3.05;;
66380;SDS011;53177;52.648;1.214;2022-12-19T08:28:13;11.00;;;3.10;;
66380;SDS011;53177;52.648;1.214;2022-12-19T08:30:39;11.35;;;2.97;;
66380;SDS011;53177;52.648;1.214;2022-12-19T08:33:07;8.80;;;3.50;;
66380;SDS011;53177;52.648;1.214;2022-12-19T08:35:32;10.30;;;3.40;;
66380;SDS011;53177;52.648;1.214;2022-12-19T08:38:00;8.90;;;3.40;;
66380;SDS011;53177;52.648;1.214;2022-12-19T08:40:26;8.60;;;3.33;;
66380;SDS011;53177;52.648;1.214;2022-12-19T08:42:52;13.48;;;4.10;;
66380;SDS011;53177;52.648;1.214;2022-12-19T08:45:17;11.55;;;4.00;;
66380;SDS011;53177;52.648;1.214;2022-12-19T08:47:43;8.43;;;3.58;;
66380;SDS011;53177;52.648;1.214;2022-12-19T08:50:10;10.67;;;4.83;;
66380;SDS011;53177;52.648;1.214;2022-12-19T08:52:38;9.32;;;4.03;;
66380;SDS011;53177;52.648;1.214;2022-12-19T08:55:03;12.18;;;4.15;;
66380;SDS011;53177;52.648;1.214;2022-12-19T08:57:29;14.20;;;3.90;;
66380;SDS011;53177;52.648;1.214;2022-12-19T08:59:54;12.35;;;4.20;;
66380;SDS011;53177;52.648;1.214;2022-12-19T09:02:20;11.80;;;4.35;;
66380;SDS011;53177;52.648;1.214;2022-12-19T09:04:46;11.07;;;3.90;;
66380;SDS011;53177;52.648;1.214;2022-12-19T09:07:11;12.20;;;4.35;;
66380;SDS011;53177;52.648;1.214;2022-12-19T09:09:37;10.52;;;3.63;;
66380;SDS011;53177;52.648;1.214;2022-12-19T09:12:03;10.20;;;3.85;;
66380;SDS011;53177;52.648;1.214;2022-12-19T09:14:31;12.20;;;4.20;;
66380;SDS011;53177;52.648;1.214;2022-12-19T09:16:58;12.15;;;4.18;;
66380;SDS011;53177;52.648;1.214;2022-12-19T09:19:24;11.20;;;4.07;;
66380;SDS011;53177;52.648;1.214;2022-12-19T09:21:49;9.85;;;3.30;;
66380;SDS011;53177;52.648;1.214;2022-12-19T09:24:15;8.20;;;3.30;;
66380;SDS011;53177;52.648;1.214;2022-12-19T09:26:40;10.27;;;3.70;;
66380;SDS011;53177;52.648;1.214;2022-12-19T09:29:06;9.10;;;3.30;;
66380;SDS011;53177;52.648;1.214;2022-12-19T09:31:32;11.85;;;3.47;;
66380;SDS011;53177;52.648;1.214;2022-12-19T09:33:58;9.27;;;3.10;;
66380;SDS011;53177;52.648;1.214;2022-12-19T09:36:24;9.83;;;3.30;;
66380;SDS011;53177;52.648;1.214;2022-12-19T09:38:51;8.00;;;3.13;;
66380;SDS011;53177;52.648;1.214;2022-12-19T09:46:54;9.57;;;2.70;;
66380;SDS011;53177;52.648;1.214;2022-12-19T09:49:24;9.55;;;2.97;;
66380;SDS011;53177;52.648;1.214;2022-12-19T10:00:06;8.02;;;2.70;;
66380;SDS011;53177;52.648;1.214;2022-12-19T10:02:40;9.68;;;2.58;;
66380;SDS011;53177;52.648;1.214;2022-12-19T10:07:38;8.60;;;2.67;;
66380;SDS011;53177;52.648;1.214;2022-12-19T10:10:04;6.53;;;2.40;;
66380;SDS011;53177;52.648;1.214;2022-12-19T10:12:38;9.60;;;2.47;;
66380;SDS011;53177;52.648;1.214;2022-12-19T10:15:32;7.33;;;2.20;;
66380;SDS011;53177;52.648;1.214;2022-12-19T10:21:27;7.47;;;2.20;;
66380;SDS011;53177;52.648;1.214;2022-12-19T10:23:59;6.82;;;2.25;;
66380;SDS011;53177;52.648;1.214;2022-12-19T10:29:13;8.20;;;2.17;;
66380;SDS011;53177;52.648;1.214;2022-12-19T10:34:29;5.72;;;2.10;;
66380;SDS011;53177;52.648;1.214;2022-12-19T10:37:00;7.50;;;2.00;;
66380;SDS011;53177;52.648;1.214;2022-12-19T10:39:45;7.10;;;2.22;;
66380;SDS011;53177;52.648;1.214;2022-12-19T10:42:22;6.22;;;2.30;;
66380;SDS011;53177;52.648;1.214;2022-12-19T10:45:14;7.30;;;2.10;;
66380;SDS011;53177;52.648;1.214;2022-12-19T10:47:43;6.45;;;2.35;;
66380;SDS011;53177;52.648;1.214;2022-12-19T10:50:11;5.60;;;2.17;;
66380;SDS011;53177;52.648;1.214;2022-12-19T10:52:46;5.63;;;1.90;;
66380;SDS011;53177;52.648;1.214;2022-12-19T10:55:20;8.02;;;2.78;;
66380;SDS011;53177;52.648;1.214;2022-12-19T10:57:48;11.00;;;2.60;;
66380;SDS011;53177;52.648;1.214;2022-12-19T11:00:15;6.85;;;2.60;;
66380;SDS011;53177;52.648;1.214;2022-12-19T11:02:47;8.65;;;2.40;;
66380;SDS011;53177;52.648;1.214;2022-12-19T11:05:41;8.82;;;2.70;;
66380;SDS011;53177;52.648;1.214;2022-12-19T11:08:19;8.07;;;2.45;;
66380;SDS011;53177;52.648;1.214;2022-12-19T11:10:53;11.35;;;3.22;;
66380;SDS011;53177;52.648;1.214;2022-12-19T11:16:03;11.23;;;2.60;;
66380;SDS011;53177;52.648;1.214;2022-12-19T11:18:43;7.55;;;2.63;;
66380;SDS011;53177;52.648;1.214;2022-12-19T11:26:28;8.20;;;2.83;;
66380;SDS011;53177;52.648;1.214;2022-12-19T11:32:03;7.90;;;2.70;;
66380;SDS011;53177;52.648;1.214;2022-12-19T11:34:30;8.30;;;2.80;;
66380;SDS011;53177;52.648;1.214;2022-12-19T11:42:56;11.70;;;3.10;;
66380;SDS011;53177;52.648;1.214;2022-12-19T11:45:43;12.60;;;3.28;;
66380;SDS011;53177;52.648;1.214;2022-12-19T11:48:18;8.50;;;3.20;;
66380;SDS011;53177;52.648;1.214;2022-12-19T11:53:29;10.43;;;3.67;;
66380;SDS011;53177;52.648;1.214;2022-12-19T11:56:02;10.47;;;3.57;;
66380;SDS011;53177;52.648;1.214;2022-12-19T11:58:32;12.88;;;3.50;;
66380;SDS011;53177;52.648;1.214;2022-12-19T12:01:05;11.27;;;3.40;;
66380;SDS011;53177;52.648;1.214;2022-12-19T12:03:42;9.93;;;3.60;;
66380;SDS011;53177;52.648;1.214;2022-12-19T12:06:21;7.80;;;3.00;;
66380;SDS011;53177;52.648;1.214;2022-12-19T12:08:57;10.23;;;3.10;;
66380;SDS011;53177;52.648;1.214;2022-12-19T12:11:25;13.68;;;4.25;;
66380;SDS011;53177;52.648;1.214;2022-12-19T12:19:55;8.63;;;2.60;;
66380;SDS011;53177;52.648;1.214;2022-12-19T12:27:55;9.57;;;2.03;;
66380;SDS011;53177;52.648;1.214;2022-12-19T12:30:38;5.72;;;1.73;;
66380;SDS011;53177;52.648;1.214;2022-12-19T12:33:20;5.15;;;1.90;;
66380;SDS011;53177;52.648;1.214;2022-12-19T12:36:01;7.50;;;1.80;;
66380;SDS011;53177;52.648;1.214;2022-12-19T12:42:00;6.07;;;1.90;;
66380;SDS011;53177;52.648;1.214;2022-12-19T12:44:35;7.28;;;1.92;;
66380;SDS011;53177;52.648;1.214;2022-12-19T12:47:20;6.90;;;1.73;;
66380;SDS011;53177;52.648;1.214;2022-12-19T12:52:33;5.28;;;1.60;;
66380;SDS011;53177;52.648;1.214;2022-12-19T12:55:02;6.45;;;1.60;;
66380;SDS011;53177;52.648;1.214;2022-12-19T12:57:34;5.07;;;1.50;;
66380;SDS011;53177;52.648;1.214;2022-12-19T13:00:15;5.47;;;1.60;;
66380;SDS011;53177;52.648;1.214;2022-12-19T13:02:53;7.20;;;1.77;;
66380;SDS011;53177;52.648;1.214;2022-12-19T13:16:58;6.22;;;1.40;;
66380;SDS011;53177;52.648;1.214;2022-12-19T13:19:31;7.22;;;1.40;;
66380;SDS011;53177;52.648;1.214;2022-12-19T13:24:52;4.35;;;1.50;;
66380;SDS011;53177;52.648;1.214;2022-12-19T13:35:04;5.53;;;1.67;;
66380;SDS011;53177;52.648;1.214;2022-12-19T13:37:58;5.90;;;1.40;;
66380;SDS011;53177;52.648;1.214;2022-12-19T13:48:30;7.15;;;1.50;;
66380;SDS011;53177;52.648;1.214;2022-12-19T13:51:05;7.65;;;1.77;;
66380;SDS011;53177;52.648;1.214;2022-12-19T13:53:32;9.20;;;1.90;;
66380;SDS011;53177;52.648;1.214;2022-12-19T13:56:02;7.27;;;2.00;;
66380;SDS011;53177;52.648;1.214;2022-12-19T13:58:30;9.43;;;2.28;;
66380;SDS011;53177;52.648;1.214;2022-12-19T14:01:06;8.00;;;2.15;;
66380;SDS011;53177;52.648;1.214;2022-12-19T14:03:39;11.75;;;2.13;;
66380;SDS011;53177;52.648;1.214;2022-12-19T14:06:21;6.13;;;1.80;;
66380;SDS011;53177;52.648;1.214;2022-12-19T14:08:50;7.93;;;1.73;;
66380;SDS011;53177;52.648;1.214;2022-12-19T14:11:18;8.60;;;1.95;;
66380;SDS011;53177;52.648;1.214;2022-12-19T14:13:55;10.60;;;2.03;;
66380;SDS011;53177;52.648;1.214;2022-12-19T14:16:42;7.22;;;1.90;;
66380;SDS011;53177;52.648;1.214;2022-12-19T14:22:19;8.17;;;2.20;;
66380;SDS011;53177;52.648;1.214;2022-12-19T14:24:53;6.97;;;1.92;;
66380;SDS011;53177;52.648;1.214;2022-12-19T14:27:19;7.88;;;2.13;;
66380;SDS011;53177;52.648;1.214;2022-12-19T14:29:49;9.40;;;2.25;;
66380;SDS011;53177;52.648;1.214;2022-12-19T14:32:17;7.38;;;2.10;;
66380;SDS011;53177;52.648;1.214;2022-12-19T14:34:43;13.20;;;2.27;;
66380;SDS011;53177;52.648;1.214;2022-12-19T14:37:31;10.13;;;2.45;;
66380;SDS011;53177;52.648;1.214;2022-12-19T14:40:06;8.27;;;2.35;;
66380;SDS011;53177;52.648;1.214;2022-12-19T14:42:46;8.73;;;2.22;;
66380;SDS011;53177;52.648;1.214;2022-12-19T14:45:34;7.93;;;2.08;;
66380;SDS011;53177;52.648;1.214;2022-12-19T14:48:22;10.55;;;2.10;;
66380;SDS011;53177;52.648;1.214;2022-12-19T14:51:01;8.00;;;2.30;;
66380;SDS011;53177;52.648;1.214;2022-12-19T14:53:28;10.75;;;2.30;;
66380;SDS011;53177;52.648;1.214;2022-12-19T14:58:36;11.82;;;2.97;;
66380;SDS011;53177;52.648;1.214;2022-12-19T15:01:04;9.43;;;2.55;;
66380;SDS011;53177;52.648;1.214;2022-12-19T15:03:49;8.23;;;2.63;;
66380;SDS011;53177;52.648;1.214;2022-12-19T15:06:26;11.43;;;2.53;;
66380;SDS011;53177;52.648;1.214;2022-12-19T15:09:04;10.02;;;3.00;;
66380;SDS011;53177;52.648;1.214;2022-12-19T15:11:32;9.15;;;2.80;;
66380;SDS011;53177;52.648;1.214;2022-12-19T15:14:25;10.57;;;3.00;;
66380;SDS011;53177;52.648;1.214;2022-12-19T15:17:02;9.77;;;2.60;;
66380;SDS011;53177;52.648;1.214;2022-12-19T15:19:28;7.90;;;2.50;;
66380;SDS011;53177;52.648;1.214;2022-12-19T15:21:54;8.68;;;2.45;;
66380;SDS011;53177;52.648;1.214;2022-12-19T15:24:20;9.67;;;2.60;;
66380;SDS011;53177;52.648;1.214;2022-12-19T15:26:46;10.50;;;2.90;;
66380;SDS011;53177;52.648;1.214;2022-12-19T15:29:14;15.70;;;3.92;;
66380;SDS011;53177;52.648;1.214;2022-12-19T15:31:41;10.13;;;2.92;;
66380;SDS011;53177;52.648;1.214;2022-12-19T15:34:23;11.93;;;3.07;;
66380;SDS011;53177;52.648;1.214;2022-12-19T15:36:58;9.20;;;2.40;;
66380;SDS011;53177;52.648;1.214;2022-12-19T15:39:25;11.18;;;3.10;;
66380;SDS011;53177;52.648;1.214;2022-12-19T15:41:53;13.88;;;3.13;;
66380;SDS011;53177;52.648;1.214;2022-12-19T15:44:23;10.70;;;3.33;;
66380;SDS011;53177;52.648;1.214;2022-12-19T15:47:01;13.70;;;3.20;;
66380;SDS011;53177;52.648;1.214;2022-12-19T15:49:32;9.23;;;3.08;;
66380;SDS011;53177;52.648;1.214;2022-12-19T15:51:59;9.15;;;3.40;;
66380;SDS011;53177;52.648;1.214;2022-12-19T15:54:24;11.55;;;3.20;;
66380;SDS011;53177;52.648;1.214;2022-12-19T15:56:51;11.37;;;3.20;;
66380;SDS011;53177;52.648;1.214;2022-12-19T15:59:22;11.48;;;3.22;;
66380;SDS011;53177;52.648;1.214;2022-12-19T16:01:51;14.27;;;3.30;;
66380;SDS011;53177;52.648;1.214;2022-12-19T16:04:18;10.70;;;3.10;;
66380;SDS011;53177;52.648;1.214;2022-12-19T16:06:44;13.40;;;3.65;;
66380;SDS011;53177;52.648;1.214;2022-12-19T16:09:20;12.77;;;3.97;;
66380;SDS011;53177;52.648;1.214;2022-12-19T16:11:48;11.93;;;3.78;;
66380;SDS011;53177;52.648;1.214;2022-12-19T16:14:15;12.43;;;3.25;;
66380;SDS011;53177;52.648;1.214;2022-12-19T16:16:40;13.90;;;4.13;;
66380;SDS011;53177;52.648;1.214;2022-12-19T16:19:22;10.60;;;3.47;;
66380;SDS011;53177;52.648;1.214;2022-12-19T16:21:52;14.50;;;3.85;;
66380;SDS011;53177;52.648;1.214;2022-12-19T16:24:19;11.60;;;3.50;;
66380;SDS011;53177;52.648;1.214;2022-12-19T16:26:48;11.38;;;4.13;;
66380;SDS011;53177;52.648;1.214;2022-12-19T16:29:21;12.93;;;3.95;;
66380;SDS011;53177;52.648;1.214;2022-12-19T16:31:49;13.52;;;3.58;;
66380;SDS011;53177;52.648;1.214;2022-12-19T16:34:15;12.23;;;3.50;;
66380;SDS011;53177;52.648;1.214;2022-12-19T16:36:43;11.98;;;4.03;;
66380;SDS011;53177;52.648;1.214;2022-12-19T16:39:10;13.98;;;3.67;;
66380;SDS011;53177;52.648;1.214;2022-12-19T16:41:36;17.95;;;4.07;;
66380;SDS011;53177;52.648;1.214;2022-12-19T16:44:01;11.10;;;4.00;;
66380;SDS011;53177;52.648;1.214;2022-12-19T16:46:27;15.75;;;3.72;;
66380;SDS011;53177;52.648;1.214;2022-12-19T16:48:57;15.02;;;4.15;;
66380;SDS011;53177;52.648;1.214;2022-12-19T16:51:24;15.33;;;3.90;;
66380;SDS011;53177;52.648;1.214;2022-12-19T16:53:52;14.80;;;4.25;;
66380;SDS011;53177;52.648;1.214;2022-12-19T16:58:54;14.57;;;3.90;;
66380;SDS011;53177;52.648;1.214;2022-12-19T17:01:20;16.55;;;4.00;;
66380;SDS011;53177;52.648;1.214;2022-12-19T17:03:45;10.93;;;3.70;;
66380;SDS011;53177;52.648;1.214;2022-12-19T17:06:12;17.00;;;4.43;;
66380;SDS011;53177;52.648;1.214;2022-12-19T17:08:42;12.77;;;3.67;;